Time;durP1;ratioP1;P1;durP2;ratioP2;P2;SDS_P1;SDS_P2;PMS_P1;PMS_P2;Temp;Humidity;BMP_temperature;BMP_pressure;BME280_temperature;BME280_humidity;BME280_pressure;Samples;Min_cycle;Max_cycle;Signal;HPM_P1;HPM_P2
2023/01/05 00:00:10;;;;;;;9.02;2.63;;;19.00;99.90;;;;;;4213845;28;20243;-71
2023/01/05 00:02:12;;;;;;;7.25;2.63;;;19.00;99.90;;;;;;4205795;28;20211;-71
2023/01/05 00:04:15;;;;;;;7.28;2.42;;;19.00;99.90;;;;;;4213764;28;20267;-71
2023/01/05 00:06:19;;;;;;;7.03;2.47;;;19.00;99.90;;;;;;4213842;28;20568;-71
2023/01/05 00:08:21;;;;;;;7.43;2.60;;;19.00;99.90;;;;;;4211481;28;20218;-71
2023/01/05 00:22:33;;;;;;;5.32;2.10;;;18.90;99.90;;;;;;4206799;28;20601;-71
2023/01/05 00:24:35;;;;;;;8.30;3.05;;;18.90;99.90;;;;;;4211724;28;20222;-71
2023/01/05 00:26:37;;;;;;;4.43;2.17;;;18.90;99.90;;;;;;4213406;28;20259;-71
2023/01/05 00:28:40;;;;;;;6.50;2.63;;;18.90;99.90;;;;;;4210286;28;20226;-71
2023/01/05 00:30:43;;;;;;;6.35;2.85;;;18.90;99.90;;;;;;4196363;28;20203;-71
2023/01/05 00:32:46;;;;;;;6.60;2.03;;;18.90;99.90;;;;;;4209216;28;20210;-71
2023/01/05 00:34:53;;;;;;;8.82;2.67;;;18.90;99.90;;;;;;4205028;28;20252;-71
2023/01/05 00:36:55;;;;;;;8.40;2.45;;;18.90;99.90;;;;;;4208646;28;20203;-71
2023/01/05 00:38:59;;;;;;;7.85;2.67;;;18.90;99.90;;;;;;4209662;28;20214;-71
2023/01/05 00:41:01;;;;;;;5.82;2.05;;;18.90;99.90;;;;;;4202327;28;20276;-72
2023/01/05 00:43:04;;;;;;;7.38;2.40;;;18.90;99.90;;;;;;4206042;28;20256;-71
2023/01/05 00:45:08;;;;;;;6.90;2.33;;;18.90;99.90;;;;;;4207276;28;20639;-71
2023/01/05 00:47:11;;;;;;;6.10;2.28;;;18.90;99.90;;;;;;4211739;28;20214;-71
2023/01/05 00:49:13;;;;;;;6.75;2.38;;;18.90;99.90;;;;;;4203607;28;20263;-71
2023/01/05 00:51:16;;;;;;;5.82;2.03;;;18.80;99.90;;;;;;4199213;28;20211;-71
2023/01/05 00:53:18;;;;;;;6.95;2.92;;;18.90;99.90;;;;;;4207351;28;20218;-71
2023/01/05 00:55:22;;;;;;;6.57;2.22;;;18.90;99.90;;;;;;4205310;28;20219;-71
2023/01/05 00:57:24;;;;;;;7.15;2.63;;;18.90;99.90;;;;;;4205838;28;20267;-71
2023/01/05 00:59:27;;;;;;;5.22;2.42;;;18.90;99.90;;;;;;4212656;28;20233;-71
2023/01/05 01:01:29;;;;;;;6.97;2.42;;;18.90;99.90;;;;;;4200520;28;20231;-71
2023/01/05 01:03:31;;;;;;;7.25;2.78;;;18.90;99.90;;;;;;4202594;28;20272;-70
2023/01/05 01:05:34;;;;;;;7.97;2.58;;;18.90;99.90;;;;;;4201515;28;20226;-70
2023/01/05 01:07:36;;;;;;;5.22;2.60;;;18.90;99.90;;;;;;4202606;28;20256;-70
2023/01/05 01:09:40;;;;;;;8.20;2.55;;;18.90;99.90;;;;;;4196422;28;20223;-70
2023/01/05 01:11:44;;;;;;;6.45;2.33;;;18.90;99.90;;;;;;4212204;28;20215;-70
2023/01/05 01:13:46;;;;;;;9.82;2.65;;;18.90;99.90;;;;;;4212623;28;20263;-70
2023/01/05 01:15:49;;;;;;;8.23;2.78;;;18.90;99.90;;;;;;4210463;28;20268;-70
2023/01/05 01:17:51;;;;;;;8.10;2.45;;;18.90;99.90;;;;;;4212208;28;20218;-70
2023/01/05 01:19:53;;;;;;;6.88;2.45;;;18.90;99.90;;;;;;4199756;28;20253;-70
2023/01/05 01:21:56;;;;;;;6.00;2.35;;;18.90;99.90;;;;;;4202786;28;20222;-70
2023/01/05 01:23:58;;;;;;;8.80;2.67;;;18.90;99.90;;;;;;4214068;28;20214;-70
2023/01/05 01:26:04;;;;;;;4.47;2.40;;;18.90;99.90;;;;;;4212418;28;20264;-70
2023/01/05 01:28:08;;;;;;;7.22;2.53;;;18.90;99.90;;;;;;4212374;28;20256;-70
2023/01/05 01:30:11;;;;;;;6.60;2.85;;;18.90;99.90;;;;;;4205162;28;20222;-71
2023/01/05 01:32:14;;;;;;;7.03;2.28;;;18.80;99.90;;;;;;4212388;28;20210;-70
2023/01/05 01:34:17;;;;;;;7.85;2.28;;;18.90;99.90;;;;;;4212264;28;20214;-70
2023/01/05 01:36:19;;;;;;;7.85;2.83;;;18.90;99.90;;;;;;4201322;28;20731;-70
2023/01/05 01:38:22;;;;;;;6.85;2.72;;;18.80;99.90;;;;;;4203854;28;20210;-70
2023/01/05 01:40:25;;;;;;;7.38;2.38;;;18.80;99.90;;;;;;4206835;28;20242;-71
2023/01/05 01:42:27;;;;;;;8.57;2.92;;;18.80;99.90;;;;;;4207112;28;20291;-70
2023/01/05 01:44:52;;;;;;;8.95;2.70;;;18.80;99.90;;;;;;4212631;28;20537;-70
2023/01/05 01:46:54;;;;;;;6.15;2.50;;;18.80;99.90;;;;;;4212430;28;20268;-71
2023/01/05 01:48:59;;;;;;;8.05;2.58;;;18.80;99.90;;;;;;4211025;28;20214;-72
2023/01/05 01:51:06;;;;;;;7.55;2.58;;;18.80;99.90;;;;;;4212160;28;20620;-71
2023/01/05 01:53:11;;;;;;;7.30;2.40;;;18.80;99.90;;;;;;4212231;28;20265;-71
2023/01/05 01:55:14;;;;;;;7.70;2.72;;;18.80;99.90;;;;;;4207904;28;20256;-71
2023/01/05 01:57:17;;;;;;;7.18;2.65;;;18.80;99.90;;;;;;4201211;28;20215;-71
2023/01/05 01:59:19;;;;;;;8.45;2.40;;;18.80;99.90;;;;;;4206100;28;20315;-71
2023/01/05 02:01:25;;;;;;;6.85;2.20;;;18.80;99.90;;;;;;4210909;28;20378;-71
2023/01/05 02:03:28;;;;;;;9.95;3.15;;;18.80;99.90;;;;;;4211964;28;20218;-71
2023/01/05 02:05:32;;;;;;;7.97;3.13;;;18.80;99.90;;;;;;4212957;28;20218;-72
2023/01/05 02:07:40;;;;;;;9.00;2.42;;;18.70;99.90;;;;;;4213933;28;20211;-71
2023/01/05 02:09:43;;;;;;;8.35;2.58;;;18.80;99.90;;;;;;4213805;28;20260;-71
2023/01/05 02:11:56;;;;;;;5.75;2.33;;;18.80;99.90;;;;;;4215581;28;20624;-71
2023/01/05 02:14:11;;;;;;;8.50;2.67;;;18.80;99.90;;;;;;4218515;28;20218;-72
2023/01/05 02:16:23;;;;;;;5.43;2.53;;;18.70;99.90;;;;;;4215464;28;20263;-71
2023/01/05 02:18:47;;;;;;;5.50;2.40;;;18.70;99.90;;;;;;4203063;28;20214;-71
2023/01/05 02:21:14;;;;;;;7.25;2.97;;;18.70;99.90;;;;;;4211252;28;20276;-71
2023/01/05 02:23:50;;;;;;;8.02;2.53;;;18.70;99.90;;;;;;4206446;28;20244;-71
2023/01/05 02:26:31;;;;;;;7.82;2.60;;;18.70;99.90;;;;;;4214045;28;20263;-71
2023/01/05 02:28:54;;;;;;;7.00;2.70;;;18.70;99.90;;;;;;4205205;28;20210;-72
2023/01/05 02:31:09;;;;;;;9.10;2.47;;;18.70;99.90;;;;;;4210430;28;20211;-71
2023/01/05 02:33:23;;;;;;;6.40;2.63;;;18.70;99.90;;;;;;4215566;28;20268;-75
2023/01/05 02:35:34;;;;;;;7.07;2.30;;;18.70;99.90;;;;;;4207502;28;20672;-76
2023/01/05 02:37:42;;;;;;;9.00;2.13;;;18.70;99.90;;;;;;4215157;28;20255;-75
2023/01/05 02:39:50;;;;;;;8.20;2.58;;;18.70;99.90;;;;;;4201740;28;20211;-75
2023/01/05 02:42:01;;;;;;;8.93;2.55;;;18.70;99.90;;;;;;4206910;28;20283;-75
2023/01/05 02:44:04;;;;;;;7.38;2.78;;;18.70;99.90;;;;;;4215357;28;20619;-75
2023/01/05 02:46:07;;;;;;;7.07;2.50;;;18.70;99.90;;;;;;4214401;28;20214;-75
2023/01/05 02:48:10;;;;;;;7.03;2.60;;;18.70;99.90;;;;;;4215267;28;20271;-75
2023/01/05 02:50:19;;;;;;;7.10;2.42;;;18.70;99.90;;;;;;4215172;28;20210;-75
2023/01/05 02:52:22;;;;;;;9.05;2.72;;;18.70;99.90;;;;;;4210024;28;20202;-75
2023/01/05 02:54:27;;;;;;;7.63;2.30;;;18.70;99.90;;;;;;4214713;28;20659;-75
2023/01/05 02:56:36;;;;;;;7.93;2.83;;;18.70;99.90;;;;;;4202939;28;20214;-75
2023/01/05 02:58:43;;;;;;;9.35;2.75;;;18.70;99.90;;;;;;4214985;28;20272;-75
2023/01/05 03:00:50;;;;;;;6.47;2.45;;;18.70;99.90;;;;;;4214492;28;20296;-75
2023/01/05 03:02:59;;;;;;;7.53;2.83;;;18.70;99.90;;;;;;4202582;28;20218;-75
2023/01/05 03:05:06;;;;;;;7.68;2.70;;;18.70;99.90;;;;;;4214782;28;20287;-75
2023/01/05 03:07:13;;;;;;;6.78;2.45;;;18.70;99.90;;;;;;4214774;28;20223;-75
2023/01/05 03:09:18;;;;;;;8.82;3.20;;;18.70;99.90;;;;;;4214091;28;20206;-75
2023/01/05 03:13:44;;;;;;;7.75;2.50;;;18.60;99.90;;;;;;4201501;28;20202;-75
2023/01/05 03:15:48;;;;;;;9.18;2.95;;;18.60;99.90;;;;;;4209679;28;20206;-75
2023/01/05 03:17:52;;;;;;;7.07;2.55;;;18.60;99.90;;;;;;4202240;28;20260;-75
2023/01/05 03:19:57;;;;;;;6.78;2.60;;;18.60;99.90;;;;;;4212522;28;20202;-75
2023/01/05 03:36:23;;;;;;;7.28;2.30;;;18.60;99.90;;;;;;4213201;28;20186;-75
2023/01/05 03:38:30;;;;;;;8.07;2.80;;;18.60;99.90;;;;;;4206975;28;20214;-75
2023/01/05 03:40:35;;;;;;;7.38;2.65;;;18.60;99.90;;;;;;4212420;28;20210;-75
2023/01/05 03:42:38;;;;;;;7.43;2.42;;;18.60;99.90;;;;;;4211555;28;20234;-75
2023/01/05 03:44:44;;;;;;;6.97;2.40;;;18.60;99.90;;;;;;4202084;28;20223;-75
2023/01/05 03:46:46;;;;;;;7.95;2.78;;;18.60;99.90;;;;;;4208445;28;20210;-75
2023/01/05 03:48:49;;;;;;;7.40;2.83;;;18.60;99.90;;;;;;4213631;28;20214;-75
2023/01/05 03:50:52;;;;;;;7.88;2.90;;;18.60;99.90;;;;;;4214218;28;20206;-75
2023/01/05 03:52:55;;;;;;;7.38;2.72;;;18.60;99.90;;;;;;4211139;28;20207;-75
2023/01/05 03:54:58;;;;;;;9.45;3.25;;;18.60;99.90;;;;;;4213779;28;20282;-75
2023/01/05 03:57:00;;;;;;;8.35;2.53;;;18.60;99.90;;;;;;4213370;28;20263;-75
2023/01/05 03:59:02;;;;;;;9.93;3.50;;;18.60;99.90;;;;;;4210693;28;20203;-74
2023/01/05 04:01:07;;;;;;;8.68;2.80;;;18.60;99.90;;;;;;4213500;28;20260;-75
2023/01/05 04:03:09;;;;;;;8.88;2.95;;;18.60;99.90;;;;;;4213759;28;20264;-75
2023/01/05 04:05:12;;;;;;;10.02;3.20;;;18.60;99.90;;;;;;4214053;28;20268;-75
2023/01/05 04:07:14;;;;;;;7.72;2.40;;;18.60;99.90;;;;;;4213686;28;20627;-75
2023/01/05 04:09:18;;;;;;;8.98;3.08;;;18.60;99.90;;;;;;4213696;28;20214;-75
2023/01/05 04:11:22;;;;;;;7.57;2.67;;;18.60;99.90;;;;;;4211508;28;20287;-75
2023/01/05 04:13:25;;;;;;;7.53;2.53;;;18.60;99.90;;;;;;4208915;28;20210;-75
2023/01/05 04:15:27;;;;;;;9.10;3.28;;;18.60;99.90;;;;;;4213401;28;20267;-75
2023/01/05 04:17:29;;;;;;;6.95;2.83;;;18.60;99.90;;;;;;4213418;28;20214;-75
2023/01/05 04:19:32;;;;;;;7.60;2.53;;;18.60;99.90;;;;;;4213725;28;20259;-75
2023/01/05 04:21:34;;;;;;;7.55;2.78;;;18.60;99.90;;;;;;4213651;28;20291;-75
2023/01/05 04:23:37;;;;;;;6.53;2.47;;;18.60;99.90;;;;;;4209952;28;20211;-75
2023/01/05 04:25:40;;;;;;;7.28;2.53;;;18.60;99.90;;;;;;4212817;28;20222;-75
2023/01/05 04:27:43;;;;;;;7.60;2.50;;;18.60;99.90;;;;;;4202116;28;20219;-75
2023/01/05 04:29:45;;;;;;;8.82;2.65;;;18.60;99.90;;;;;;4200880;28;20236;-75
2023/01/05 04:31:47;;;;;;;6.97;2.95;;;18.60;99.90;;;;;;4209092;28;20211;-75
2023/01/05 04:33:50;;;;;;;11.38;3.05;;;18.60;99.90;;;;;;4200870;28;20285;-75
2023/01/05 04:35:52;;;;;;;9.32;3.10;;;18.60;99.90;;;;;;4198135;28;20227;-75
2023/01/05 04:37:54;;;;;;;10.18;2.67;;;18.60;99.90;;;;;;4201058;28;20218;-75
2023/01/05 04:39:57;;;;;;;7.78;2.63;;;18.60;99.90;;;;;;4212754;28;20213;-75
2023/01/05 04:42:01;;;;;;;6.70;2.65;;;18.60;99.90;;;;;;4212845;28;20235;-75
2023/01/05 04:44:03;;;;;;;7.43;2.53;;;18.60;99.90;;;;;;4212888;28;21033;-75
2023/01/05 04:46:05;;;;;;;6.75;2.58;;;18.60;99.90;;;;;;4213175;28;20304;-75
2023/01/05 04:48:08;;;;;;;8.90;2.72;;;18.60;99.90;;;;;;4197593;28;20261;-75
2023/01/05 04:50:10;;;;;;;7.55;2.70;;;18.60;99.90;;;;;;4208237;28;20232;-75
2023/01/05 04:52:13;;;;;;;7.88;2.33;;;18.50;99.90;;;;;;4212667;28;20218;-75
2023/01/05 04:54:16;;;;;;;6.82;2.85;;;18.50;99.90;;;;;;4202491;28;20272;-75
2023/01/05 04:56:18;;;;;;;7.10;2.40;;;18.50;99.90;;;;;;4210221;28;20215;-75
2023/01/05 04:58:22;;;;;;;6.65;2.47;;;18.50;99.90;;;;;;4206328;28;20210;-75
2023/01/05 05:00:24;;;;;;;9.98;3.10;;;18.60;99.90;;;;;;4212070;28;20234;-76
2023/01/05 05:02:26;;;;;;;10.10;2.85;;;18.50;99.90;;;;;;4211953;28;20238;-75
2023/01/05 05:04:29;;;;;;;6.97;2.42;;;18.50;99.90;;;;;;4205911;28;20219;-75
2023/01/05 05:06:31;;;;;;;9.68;3.13;;;18.50;99.90;;;;;;4212509;28;20211;-75
2023/01/05 05:08:33;;;;;;;9.27;2.85;;;18.50;99.90;;;;;;4211935;28;20259;-75
2023/01/05 05:10:36;;;;;;;9.32;2.95;;;18.50;99.90;;;;;;4210969;28;20214;-75
2023/01/05 05:12:38;;;;;;;9.18;2.55;;;18.50;99.90;;;;;;4206418;28;20214;-75
2023/01/05 05:14:42;;;;;;;9.15;3.03;;;18.50;99.90;;;;;;4212684;28;20272;-75
2023/01/05 05:16:44;;;;;;;11.60;3.15;;;18.50;99.90;;;;;;4204090;28;20236;-75
2023/01/05 05:18:47;;;;;;;9.35;2.67;;;18.50;99.90;;;;;;4209092;28;20207;-75
2023/01/05 05:20:52;;;;;;;8.73;2.88;;;18.50;99.90;;;;;;4206545;28;20267;-75
2023/01/05 05:22:54;;;;;;;8.85;2.65;;;18.50;99.90;;;;;;4208393;28;20227;-75
2023/01/05 05:24:56;;;;;;;7.97;2.35;;;18.50;99.90;;;;;;4200485;28;20264;-75
2023/01/05 05:26:59;;;;;;;6.40;2.60;;;18.50;99.90;;;;;;4212521;28;20609;-75
2023/01/05 05:29:01;;;;;;;8.07;3.13;;;18.50;99.90;;;;;;4206588;28;20302;-75
2023/01/05 05:31:05;;;;;;;7.70;2.78;;;18.50;99.90;;;;;;4210884;28;20600;-75
2023/01/05 05:33:07;;;;;;;8.18;2.80;;;18.50;99.90;;;;;;4211753;28;20205;-75
2023/01/05 05:35:10;;;;;;;5.57;2.35;;;18.50;99.90;;;;;;4212849;28;20276;-75
2023/01/05 05:37:12;;;;;;;11.38;2.88;;;18.50;99.90;;;;;;4212784;28;20359;-75
2023/01/05 05:39:16;;;;;;;9.20;2.50;;;18.50;99.90;;;;;;4212505;28;20222;-75
2023/01/05 05:41:18;;;;;;;8.15;2.78;;;18.50;99.90;;;;;;4210430;28;20280;-75
2023/01/05 05:43:20;;;;;;;7.53;2.55;;;18.50;99.90;;;;;;4214085;28;20233;-75
2023/01/05 05:45:23;;;;;;;6.68;2.67;;;18.50;99.90;;;;;;4216053;28;20218;-75
2023/01/05 05:47:26;;;;;;;8.82;2.50;;;18.50;99.90;;;;;;4214895;28;20274;-75
2023/01/05 05:49:29;;;;;;;7.85;2.35;;;18.50;99.90;;;;;;4208576;28;20210;-75
2023/01/05 05:51:31;;;;;;;10.10;3.00;;;18.50;99.90;;;;;;4214820;28;20674;-75
2023/01/05 05:53:34;;;;;;;7.88;2.65;;;18.40;99.90;;;;;;4205249;28;20211;-75
2023/01/05 05:55:36;;;;;;;5.68;2.40;;;18.40;99.90;;;;;;4208852;28;20210;-75
2023/01/05 05:57:39;;;;;;;6.80;2.63;;;18.50;99.90;;;;;;4215331;28;20268;-75
2023/01/05 05:59:41;;;;;;;9.48;2.92;;;18.50;99.90;;;;;;4215055;28;20242;-75
2023/01/05 06:01:43;;;;;;;5.63;2.13;;;18.50;99.90;;;;;;4215723;28;20263;-75
2023/01/05 06:03:47;;;;;;;6.65;2.50;;;18.50;99.90;;;;;;4210531;28;20272;-75
2023/01/05 06:05:49;;;;;;;7.93;2.88;;;18.50;99.90;;;;;;4216326;28;20343;-75
2023/01/05 06:07:52;;;;;;;6.43;2.22;;;18.50;99.90;;;;;;4215516;28;20627;-75
2023/01/05 06:09:54;;;;;;;7.78;2.40;;;18.50;99.90;;;;;;4214022;28;20244;-75
2023/01/05 06:11:56;;;;;;;10.57;3.08;;;18.50;99.90;;;;;;4215621;28;20256;-75
2023/01/05 06:13:59;;;;;;;9.35;3.05;;;18.50;99.90;;;;;;4215964;28;20214;-75
2023/01/05 06:16:01;;;;;;;8.30;2.65;;;18.50;99.90;;;;;;4215357;28;20272;-75
2023/01/05 06:18:03;;;;;;;7.82;2.83;;;18.50;99.90;;;;;;4200976;28;20227;-75
2023/01/05 06:20:09;;;;;;;7.72;2.60;;;18.60;99.90;;;;;;4201100;28;20215;-75
2023/01/05 06:22:11;;;;;;;8.38;2.63;;;18.50;99.90;;;;;;4213808;28;20650;-75
2023/01/05 06:24:14;;;;;;;7.32;2.50;;;18.60;99.90;;;;;;4199479;28;20292;-75
2023/01/05 06:26:16;;;;;;;8.65;2.65;;;18.60;99.90;;;;;;4213752;28;20262;-75
2023/01/05 06:28:18;;;;;;;7.28;2.67;;;18.60;99.90;;;;;;4214243;28;20226;-75
2023/01/05 06:30:21;;;;;;;9.50;3.50;;;18.60;99.90;;;;;;4207050;28;20218;-75
2023/01/05 06:32:23;;;;;;;12.23;2.95;;;18.60;99.90;;;;;;4214418;28;20214;-75
2023/01/05 06:34:26;;;;;;;6.65;2.90;;;18.60;99.90;;;;;;4214835;28;20214;-75
2023/01/05 06:36:29;;;;;;;8.50;3.38;;;18.60;99.90;;;;;;4214963;28;20724;-75
2023/01/05 06:38:32;;;;;;;8.38;2.67;;;18.60;99.90;;;;;;4215462;28;20218;-75
2023/01/05 06:40:34;;;;;;;9.35;2.70;;;18.70;99.90;;;;;;4215154;28;20291;-75
2023/01/05 06:42:37;;;;;;;7.57;2.67;;;18.60;99.90;;;;;;4214847;28;20589;-75
2023/01/05 06:44:41;;;;;;;8.00;3.08;;;18.60;99.90;;;;;;4214765;28;20621;-75
2023/01/05 06:46:43;;;;;;;6.18;2.83;;;18.60;99.90;;;;;;4215174;28;20207;-75
2023/01/05 06:48:46;;;;;;;7.13;2.90;;;18.70;99.90;;;;;;4215002;28;20275;-75
2023/01/05 06:50:48;;;;;;;9.18;3.17;;;18.70;99.90;;;;;;4215189;28;20207;-75
2023/01/05 06:52:52;;;;;;;8.88;2.65;;;18.70;99.90;;;;;;4206616;28;20210;-75
2023/01/05 06:54:54;;;;;;;8.18;3.05;;;18.70;99.90;;;;;;4214836;28;20264;-75
2023/01/05 06:56:57;;;;;;;7.07;2.88;;;18.70;99.90;;;;;;4214315;28;20218;-75
2023/01/05 06:58:59;;;;;;;6.55;2.75;;;18.70;99.90;;;;;;4214557;28;20207;-75
2023/01/05 07:01:01;;;;;;;9.32;3.00;;;18.70;99.90;;;;;;4214918;28;20215;-75
2023/01/05 07:03:07;;;;;;;11.18;3.05;;;18.70;99.90;;;;;;4214408;28;20198;-75
2023/01/05 07:05:10;;;;;;;8.98;2.97;;;18.70;99.90;;;;;;4214460;28;20619;-75
2023/01/05 07:07:13;;;;;;;7.20;2.45;;;18.70;99.90;;;;;;4214897;28;20214;-75
2023/01/05 07:09:17;;;;;;;9.07;2.92;;;18.80;99.90;;;;;;4207476;28;20214;-75
2023/01/05 07:11:19;;;;;;;8.07;2.80;;;18.70;99.90;;;;;;4214447;28;20214;-75
2023/01/05 07:13:21;;;;;;;8.57;3.03;;;18.70;99.90;;;;;;4205659;28;20215;-75
2023/01/05 07:15:24;;;;;;;10.63;3.00;;;18.80;99.90;;;;;;4203762;28;20623;-75
2023/01/05 07:17:26;;;;;;;7.88;2.95;;;18.80;99.90;;;;;;4214565;28;20214;-75
2023/01/05 07:19:29;;;;;;;9.95;2.78;;;18.80;99.90;;;;;;4204894;28;20325;-75
2023/01/05 07:21:31;;;;;;;8.98;2.83;;;18.80;99.90;;;;;;4214320;28;20210;-75
2023/01/05 07:23:36;;;;;;;6.45;2.53;;;18.80;99.90;;;;;;4204270;28;20577;-75
2023/01/05 07:25:40;;;;;;;8.45;2.58;;;18.80;99.90;;;;;;4207794;28;20260;-75
2023/01/05 07:27:42;;;;;;;10.48;3.08;;;18.80;99.90;;;;;;4203560;28;20211;-75
2023/01/05 07:29:44;;;;;;;8.77;3.05;;;18.90;99.90;;;;;;4202247;28;20260;-75
2023/01/05 07:31:50;;;;;;;7.63;2.38;;;18.90;99.90;;;;;;4202217;28;20210;-75
2023/01/05 07:33:53;;;;;;;7.40;2.40;;;18.80;99.90;;;;;;4208835;28;20700;-75
2023/01/05 07:35:55;;;;;;;6.75;2.92;;;18.90;99.90;;;;;;4201462;28;20265;-75
2023/01/05 07:37:58;;;;;;;9.65;3.05;;;18.80;99.90;;;;;;4202824;28;20210;-75
2023/01/05 07:40:00;;;;;;;8.73;2.83;;;18.90;99.90;;;;;;4208803;28;20210;-75
2023/01/05 07:42:04;;;;;;;7.60;2.63;;;18.90;99.90;;;;;;4214711;28;20283;-75
2023/01/05 07:44:07;;;;;;;7.20;2.67;;;18.90;99.90;;;;;;4215724;28;20275;-75
2023/01/05 07:46:09;;;;;;;7.18;2.97;;;18.90;99.90;;;;;;4206936;28;20214;-75
2023/01/05 07:48:12;;;;;;;6.82;2.35;;;18.90;99.90;;;;;;4210265;28;20256;-75
2023/01/05 07:50:14;;;;;;;7.68;2.78;;;18.90;99.90;;;;;;4213914;28;20214;-75
2023/01/05 07:52:17;;;;;;;7.70;2.63;;;18.90;99.90;;;;;;4210247;28;20270;-75
2023/01/05 07:54:20;;;;;;;7.45;2.80;;;18.90;99.90;;;;;;4213655;28;20233;-75
2023/01/05 07:56:22;;;;;;;9.18;3.05;;;19.00;99.90;;;;;;4209240;28;20621;-75
2023/01/05 07:58:27;;;;;;;7.65;2.50;;;18.90;99.90;;;;;;4211103;28;20257;-75
2023/01/05 08:00:29;;;;;;;8.35;3.00;;;18.90;99.90;;;;;;4203081;28;20233;-75
2023/01/05 08:02:32;;;;;;;6.15;2.70;;;18.90;99.90;;;;;;4213727;28;20279;-75
2023/01/05 08:04:34;;;;;;;10.35;3.08;;;19.00;99.90;;;;;;4213370;28;20685;-75
2023/01/05 08:06:37;;;;;;;7.97;2.80;;;19.00;99.90;;;;;;4211361;28;20260;-75
2023/01/05 08:08:39;;;;;;;7.82;2.40;;;19.00;99.90;;;;;;4200013;28;20210;-75
2023/01/05 08:10:42;;;;;;;9.70;2.95;;;19.00;99.90;;;;;;4213877;28;20214;-75
2023/01/05 08:15:01;;;;;;;6.50;2.53;;;19.00;99.90;;;;;;4206822;28;20199;-75
2023/01/05 08:17:04;;;;;;;8.43;2.95;;;19.00;99.90;;;;;;4205934;28;20257;-75
2023/01/05 08:19:07;;;;;;;9.10;2.97;;;19.00;99.90;;;;;;4206521;28;20214;-75
2023/01/05 08:21:09;;;;;;;7.32;2.40;;;19.00;99.90;;;;;;4213297;28;20259;-75
2023/01/05 08:23:11;;;;;;;6.82;2.35;;;19.00;99.90;;;;;;4209857;28;20261;-75
2023/01/05 08:25:14;;;;;;;7.88;2.80;;;19.00;99.90;;;;;;4213529;28;20276;-75
2023/01/05 08:27:16;;;;;;;9.07;3.03;;;19.00;99.90;;;;;;4205465;28;20233;-75
2023/01/05 08:29:18;;;;;;;7.85;2.88;;;19.00;99.90;;;;;;4209507;28;20219;-75
2023/01/05 08:31:24;;;;;;;7.72;3.03;;;19.00;99.90;;;;;;4205873;28;20215;-76
2023/01/05 08:33:27;;;;;;;7.97;2.63;;;19.00;99.90;;;;;;4221174;28;20263;-75
2023/01/05 08:35:29;;;;;;;9.27;2.70;;;19.10;99.90;;;;;;4212912;28;20599;-75
2023/01/05 08:37:32;;;;;;;9.55;2.85;;;19.00;99.90;;;;;;4213417;28;20218;-75
2023/01/05 08:39:35;;;;;;;8.27;2.70;;;19.10;99.90;;;;;;4213378;28;20542;-75
2023/01/05 08:41:39;;;;;;;6.65;2.95;;;19.10;99.90;;;;;;4203781;28;20211;-75
2023/01/05 08:43:41;;;;;;;7.15;2.58;;;19.10;99.90;;;;;;4213400;28;20218;-75
2023/01/05 08:45:48;;;;;;;10.18;3.35;;;19.10;99.90;;;;;;4201542;28;20261;-75
2023/01/05 08:47:52;;;;;;;7.75;2.90;;;19.10;99.90;;;;;;4209203;28;20259;-75
2023/01/05 08:49:54;;;;;;;8.05;2.85;;;19.10;99.90;;;;;;4212596;28;20605;-75
2023/01/05 08:51:56;;;;;;;8.68;2.85;;;19.10;99.90;;;;;;4212611;28;20276;-75
2023/01/05 08:53:59;;;;;;;8.50;2.70;;;19.10;99.90;;;;;;4209811;28;20210;-75
2023/01/05 08:56:01;;;;;;;9.35;3.05;;;19.10;99.90;;;;;;4212242;28;20263;-75
2023/01/05 08:58:05;;;;;;;8.98;2.70;;;19.20;99.90;;;;;;4201341;28;20724;-75
2023/01/05 09:00:09;;;;;;;8.02;2.85;;;19.10;99.90;;;;;;4210391;28;20238;-75
2023/01/05 09:02:12;;;;;;;8.82;2.83;;;19.20;99.90;;;;;;4212600;28;20218;-75
2023/01/05 09:04:15;;;;;;;8.80;3.05;;;19.20;99.90;;;;;;4212012;28;20772;-75
2023/01/05 09:06:18;;;;;;;9.57;2.97;;;19.20;99.90;;;;;;4212509;28;20267;-71
2023/01/05 09:08:20;;;;;;;9.18;3.08;;;19.20;99.90;;;;;;4205935;28;20354;-71
2023/01/05 09:10:23;;;;;;;7.07;2.80;;;19.20;99.90;;;;;;4204495;28;20260;-72
2023/01/05 09:12:25;;;;;;;9.15;2.78;;;19.20;99.90;;;;;;4209307;28;20215;-71
2023/01/05 09:14:28;;;;;;;8.43;2.80;;;19.20;99.90;;;;;;4212785;28;20259;-71
2023/01/05 09:16:32;;;;;;;10.43;3.05;;;19.20;99.90;;;;;;4209719;28;20210;-71
2023/01/05 09:18:35;;;;;;;9.73;2.90;;;19.20;99.90;;;;;;4210811;28;20210;-71
2023/01/05 09:20:39;;;;;;;9.27;3.25;;;19.20;99.90;;;;;;4206751;28;20210;-71
2023/01/05 09:22:41;;;;;;;7.70;3.10;;;19.20;99.90;;;;;;4202206;28;20606;-71
2023/01/05 09:24:43;;;;;;;7.55;2.97;;;19.30;99.90;;;;;;4209061;28;20287;-71
2023/01/05 09:26:46;;;;;;;9.80;3.05;;;19.30;99.90;;;;;;4200375;28;20211;-71
2023/01/05 09:28:48;;;;;;;7.85;2.58;;;19.30;99.90;;;;;;4197864;28;20223;-71
2023/01/05 09:30:51;;;;;;;9.73;2.83;;;19.30;99.90;;;;;;4201013;28;20268;-71
2023/01/05 09:32:53;;;;;;;7.25;2.75;;;19.30;99.90;;;;;;4202855;28;20218;-71
2023/01/05 09:34:56;;;;;;;7.95;3.00;;;19.30;99.90;;;;;;4200575;28;20294;-71
2023/01/05 09:36:59;;;;;;;9.13;3.08;;;19.30;99.90;;;;;;4200364;28;20214;-71
2023/01/05 09:39:03;;;;;;;6.90;2.63;;;19.30;99.90;;;;;;4204785;28;20627;-72
2023/01/05 09:41:13;;;;;;;10.07;3.42;;;19.30;99.90;;;;;;4212665;28;20275;-71
2023/01/05 09:43:22;;;;;;;12.02;3.20;;;19.30;99.90;;;;;;4212147;28;20214;-71
2023/01/05 09:45:27;;;;;;;7.03;2.33;;;19.30;99.90;;;;;;4203615;28;20311;-71
2023/01/05 09:47:36;;;;;;;8.98;3.00;;;19.30;99.90;;;;;;4212176;28;20351;-71
2023/01/05 09:49:40;;;;;;;8.30;3.30;;;19.30;99.90;;;;;;4208930;28;20221;-71
2023/01/05 09:51:43;;;;;;;8.63;2.90;;;19.40;99.90;;;;;;4203652;28;20498;-71
2023/01/05 09:53:47;;;;;;;7.65;2.60;;;19.40;99.90;;;;;;4202959;28;20260;-71
2023/01/05 09:55:50;;;;;;;7.47;2.80;;;19.40;99.90;;;;;;4202727;28;20252;-71
2023/01/05 09:57:56;;;;;;;8.35;2.95;;;19.40;99.90;;;;;;4205560;28;20211;-71
2023/01/05 10:00:03;;;;;;;8.00;3.03;;;19.40;99.90;;;;;;4211282;28;20242;-71
2023/01/05 10:02:18;;;;;;;6.82;2.80;;;19.40;99.90;;;;;;4207848;28;20210;-71
2023/01/05 10:04:23;;;;;;;7.38;2.90;;;19.40;99.90;;;;;;4204832;28;20215;-71
2023/01/05 10:06:28;;;;;;;8.38;2.95;;;19.50;99.90;;;;;;4208066;28;20230;-71
2023/01/05 10:08:36;;;;;;;7.72;2.72;;;19.40;99.90;;;;;;4209925;28;20288;-71
2023/01/05 10:13:01;;;;;;;7.03;2.50;;;19.40;99.90;;;;;;4207971;28;20662;-71
2023/01/05 10:13:20;;;;;;;7.72;2.85;;;19.40;99.90;;;;;;4201800;28;20222;-71
2023/01/05 10:15:25;;;;;;;10.23;3.08;;;19.40;99.90;;;;;;4203907;28;20670;-71
2023/01/05 10:17:32;;;;;;;8.77;2.75;;;19.50;99.90;;;;;;4196002;28;20219;-71
2023/01/05 10:19:34;;;;;;;8.70;3.50;;;19.40;99.90;;;;;;4209212;28;20264;-71
2023/01/05 10:21:46;;;;;;;7.13;2.67;;;19.50;99.90;;;;;;4207710;28;20223;-71
2023/01/05 10:23:58;;;;;;;8.32;3.03;;;19.50;99.90;;;;;;4206593;28;20218;-71
2023/01/05 10:26:12;;;;;;;7.70;2.70;;;19.50;99.90;;;;;;4205863;28;20234;-71
2023/01/05 10:28:33;;;;;;;9.38;3.15;;;19.50;99.90;;;;;;4208854;28;20263;-71
2023/01/05 10:30:50;;;;;;;7.63;2.50;;;19.50;99.90;;;;;;4209826;28;20230;-71
2023/01/05 10:32:59;;;;;;;9.02;3.05;;;19.50;99.90;;;;;;4214846;28;20218;-71
2023/01/05 10:35:05;;;;;;;9.38;2.60;;;19.50;99.90;;;;;;4207076;28;20211;-72
2023/01/05 10:37:24;;;;;;;11.02;3.35;;;19.60;99.90;;;;;;4208291;28;20664;-71
2023/01/05 10:39:36;;;;;;;9.35;3.05;;;19.60;99.90;;;;;;4202955;28;20203;-71
2023/01/05 10:41:49;;;;;;;7.57;2.90;;;19.60;99.90;;;;;;4209194;28;20234;-71
2023/01/05 10:44:12;;;;;;;8.50;2.88;;;19.50;99.90;;;;;;4208325;28;20279;-71
2023/01/05 10:46:17;;;;;;;6.95;2.97;;;19.50;99.90;;;;;;4213587;28;20230;-71
2023/01/05 10:48:29;;;;;;;9.63;3.17;;;19.60;99.90;;;;;;4215202;28;20218;-71
2023/01/05 10:50:37;;;;;;;9.68;3.05;;;19.60;99.90;;;;;;4209880;28;20957;-71
2023/01/05 10:52:39;;;;;;;9.60;3.45;;;19.60;99.90;;;;;;4210269;28;20283;-71
2023/01/05 10:54:46;;;;;;;7.30;2.35;;;19.60;99.90;;;;;;4206883;28;20219;-71
2023/01/05 10:56:49;;;;;;;8.95;3.03;;;19.60;99.90;;;;;;4204195;28;20208;-71
2023/01/05 10:59:08;;;;;;;9.27;3.20;;;19.60;99.90;;;;;;4204209;28;20218;-71
2023/01/05 11:01:23;;;;;;;8.93;3.45;;;19.70;99.90;;;;;;4208472;28;20611;-71
2023/01/05 11:03:35;;;;;;;9.43;2.88;;;19.70;99.90;;;;;;4213723;28;20218;-71
2023/01/05 11:05:42;;;;;;;9.75;2.95;;;19.70;99.90;;;;;;4213948;28;20260;-71
2023/01/05 11:07:50;;;;;;;11.45;3.20;;;19.70;99.90;;;;;;4207522;28;20205;-71
2023/01/05 11:09:52;;;;;;;11.35;3.53;;;19.70;99.90;;;;;;4206801;28;20218;-71
2023/01/05 11:11:58;;;;;;;8.85;2.90;;;19.70;99.90;;;;;;4208470;28;20317;-71
2023/01/05 11:14:01;;;;;;;8.30;2.50;;;19.70;99.90;;;;;;4204985;28;20214;-71
2023/01/05 11:16:09;;;;;;;8.10;2.80;;;19.70;99.90;;;;;;4205499;28;20304;-71
2023/01/05 11:18:25;;;;;;;9.70;3.20;;;19.70;99.90;;;;;;4204662;28;20222;-71